Suula — OJKZ — position and weather

sailwx.info

Track history (hours):
 
Tides and Currents Weather Stations Pressure Air Temp Water Temp Dewpoint Dewpoint Depression Visibility Wind Speed Wind Dir Waves Ship Positions

Suula

Last reported at 2015-Feb-01 06:33 UTC. Time now 2015-Feb-01 19:47 UTC.
Position N 59°46' E 024°45'.

Length 140 m; draft 6.5 m.

Type: Tanker. MMSI: 230956996.

Date/timePositionNaut miles runAvg speedWind from/ knotsBaromVisibWave heightAir tempDewpointWater temp
2015-Feb-01 06:33N 59°46' E 024°45'1212.6
2015-Feb-01 05:33N 59°43' E 024°21'1412.9
2015-Feb-01 04:29N 59°39' E 023°55'1312.8
2015-Feb-01 03:29N 59°34' E 023°32'6413.0
2015-Jan-31 22:33N 59°31' E 021°25'1513.5
2015-Jan-31 21:28N 59°35' E 020°57'  
2015-Jan-27 16:09N 59°55' E 021°38'914.9
2015-Jan-27 15:33N 59°50' E 021°23'1212.4
2015-Jan-27 14:33N 59°38' E 021°27'5613.7
2015-Jan-27 10:28N 59°38' E 023°18'1314.6
2015-Jan-27 09:33N 59°42' E 023°43'3014.8
2015-Jan-27 07:29N 59°50' E 024°42'4 0.1
2015-Jan-26 01:33N 59°46' E 024°47'1313.0
2015-Jan-26 00:33N 59°43' E 024°22'1313.1
2015-Jan-25 23:32N 59°39' E 023°56'1313.0
2015-Jan-25 22:32N 59°35' E 023°32'6312.7
2015-Jan-25 17:33N 59°30' E 021°27'  
2015-Jan-22 09:33N 59°32' E 021°21'  
Track history (hours):
 
Tides and Currents Weather Stations Pressure Air Temp Water Temp Dewpoint Dewpoint Depression Visibility Wind Speed Wind Dir Waves Ship Positions

Suula

Last reported at 2015-Feb-01 06:33 UTC. Time now 2015-Feb-01 19:47 UTC.
Position N 59°46' E 024°45'.

Length 140 m; draft 6.5 m.

Type: Tanker. MMSI: 230956996.

Date/timePositionNaut miles runAvg speedWind from/ knotsBaromVisibWave heightAir tempDewpointWater temp
2015-Feb-01 06:33N 59°46' E 024°45'1212.6
2015-Feb-01 05:33N 59°43' E 024°21'1412.9
2015-Feb-01 04:29N 59°39' E 023°55'1312.8
2015-Feb-01 03:29N 59°34' E 023°32'6413.0
2015-Jan-31 22:33N 59°31' E 021°25'1513.5
2015-Jan-31 21:28N 59°35' E 020°57'  
2015-Jan-27 16:09N 59°55' E 021°38'914.9
2015-Jan-27 15:33N 59°50' E 021°23'1212.4
2015-Jan-27 14:33N 59°38' E 021°27'5613.7
2015-Jan-27 10:28N 59°38' E 023°18'1314.6
2015-Jan-27 09:33N 59°42' E 023°43'3014.8
2015-Jan-27 07:29N 59°50' E 024°42'4 0.1
2015-Jan-26 01:33N 59°46' E 024°47'1313.0
2015-Jan-26 00:33N 59°43' E 024°22'1313.1
2015-Jan-25 23:32N 59°39' E 023°56'1313.0
2015-Jan-25 22:32N 59°35' E 023°32'6312.7
2015-Jan-25 17:33N 59°30' E 021°27'  
2015-Jan-22 09:33N 59°32' E 021°21'  

Dump ship's entire track history